ワシントン/ダレス の空港の天気 - METARとTAF

ワシントン・ダレス国際空港 ( KIAD / IAD ) - アメリカ バージニア州ダレス
飛行場実況気象(Metar)
観測時間04/21 12:52 EDT (04/21 16:52 UTC)
風向・風速- -
視程10km以上
天気現象
全天の8割程度の雲 雲底高度 1490m
全天の8割程度の雲 雲底高度 7620m
気温17.8℃
湿度41%
気圧1015.5hPa
METARKIAD 211652Z COR VRB/05 10SM BKN049 BKN250 18/04 A2999 RMK AO2 SLP155 T01780044
過去の天気等 Google飛行場航空写真 Wunderground天気予報

過去48時間のMETAR

飛行場予報(TAF)
発表時間: 4/21 11:04 EDT (4/21 15:04 UTC)
予報対象時間: 21日11時 EDT ~ 22日14時 EDT
風向・風速西北西 3m/s
視程10km以上
全天の4割程度の雲 雲底高度 1220m
全天の4割程度の雲 雲底高度 3050m
21日14時 EDT から
風向・風速西北西 4m/s
視程10km以上
全天の8割程度の雲 雲底高度 1220m
22日2時 EDT から
風向・風速北西 3m/s
視程10km以上
全天の4割程度の雲 雲底高度 1220m
22日8時 EDT から
風向・風速北西 3m/s
視程10km以上
全天の4割程度の雲 雲底高度 6100m
KIAD 211504Z 2115/2218 30006KT P6SM SCT040 SCT100
FM211800 30008KT P6SM BKN040
FM220600 32005KT P6SM SCT040
FM221200 32006KT P6SM SCT200